sensor_id;sensor_type;location;lat;lon;timestamp;pressure;altitude;pressure_sealevel;temperature;humidity
61359;BME280;47228;46.762;23.598;2022-12-28T00:02:13;98331.59;;;2.18;59.23
61359;BME280;47228;46.762;23.598;2022-12-28T00:04:41;98334.73;;;2.18;59.16
61359;BME280;47228;46.762;23.598;2022-12-28T00:07:09;98337.95;;;2.17;58.96
61359;BME280;47228;46.762;23.598;2022-12-28T00:09:37;98345.96;;;2.16;58.71
61359;BME280;47228;46.762;23.598;2022-12-28T00:12:05;98352.19;;;2.14;58.95
61359;BME280;47228;46.762;23.598;2022-12-28T00:14:33;98346.70;;;2.13;58.89
61359;BME280;47228;46.762;23.598;2022-12-28T00:17:01;98348.25;;;2.13;58.92
61359;BME280;47228;46.762;23.598;2022-12-28T00:19:29;98354.17;;;2.13;58.97
61359;BME280;47228;46.762;23.598;2022-12-28T00:21:57;98358.08;;;2.13;58.67
61359;BME280;47228;46.762;23.598;2022-12-28T00:24:25;98364.57;;;2.12;58.72
61359;BME280;47228;46.762;23.598;2022-12-28T00:26:53;98364.98;;;2.11;58.65
61359;BME280;47228;46.762;23.598;2022-12-28T00:29:23;98366.48;;;2.10;58.81
61359;BME280;47228;46.762;23.598;2022-12-28T00:31:51;98369.06;;;2.09;59.14
61359;BME280;47228;46.762;23.598;2022-12-28T00:34:19;98368.15;;;2.07;59.66
61359;BME280;47228;46.762;23.598;2022-12-28T00:36:50;98371.81;;;2.05;60.06
61359;BME280;47228;46.762;23.598;2022-12-28T00:39:39;98376.35;;;2.03;60.74
61359;BME280;47228;46.762;23.598;2022-12-28T00:42:09;98372.67;;;2.00;60.86
61359;BME280;47228;46.762;23.598;2022-12-28T00:44:38;98376.80;;;1.99;60.85
61359;BME280;47228;46.762;23.598;2022-12-28T00:47:06;98373.61;;;1.97;61.01
61359;BME280;47228;46.762;23.598;2022-12-28T00:49:34;98372.10;;;1.94;61.72
61359;BME280;47228;46.762;23.598;2022-12-28T00:52:02;98373.16;;;1.92;61.51
61359;BME280;47228;46.762;23.598;2022-12-28T00:54:30;98370.95;;;1.87;61.55
61359;BME280;47228;46.762;23.598;2022-12-28T00:56:58;98370.22;;;1.81;61.65
61359;BME280;47228;46.762;23.598;2022-12-28T00:59:26;98369.02;;;1.74;61.68
61359;BME280;47228;46.762;23.598;2022-12-28T01:01:54;98370.88;;;1.68;61.74
61359;BME280;47228;46.762;23.598;2022-12-28T01:04:22;98369.90;;;1.63;61.78
61359;BME280;47228;46.762;23.598;2022-12-28T01:06:50;98377.56;;;1.56;61.66
61359;BME280;47228;46.762;23.598;2022-12-28T01:09:18;98374.41;;;1.49;62.52
61359;BME280;47228;46.762;23.598;2022-12-28T01:11:46;98370.48;;;1.44;62.68
61359;BME280;47228;46.762;23.598;2022-12-28T01:14:14;98370.90;;;1.38;62.58
61359;BME280;47228;46.762;23.598;2022-12-28T01:16:41;98371.86;;;1.32;62.39
61359;BME280;47228;46.762;23.598;2022-12-28T01:19:11;98370.55;;;1.27;62.53
61359;BME280;47228;46.762;23.598;2022-12-28T01:21:42;98365.89;;;1.19;62.57
61359;BME280;47228;46.762;23.598;2022-12-28T01:24:10;98367.01;;;1.11;62.58
61359;BME280;47228;46.762;23.598;2022-12-28T01:26:38;98365.38;;;1.00;62.79
61359;BME280;47228;46.762;23.598;2022-12-28T01:29:06;98364.27;;;0.92;63.11
61359;BME280;47228;46.762;23.598;2022-12-28T01:31:34;98368.52;;;0.84;63.54
61359;BME280;47228;46.762;23.598;2022-12-28T01:34:02;98371.80;;;0.77;63.43
61359;BME280;47228;46.762;23.598;2022-12-28T01:36:31;98369.45;;;0.71;63.40
61359;BME280;47228;46.762;23.598;2022-12-28T01:39:02;98368.77;;;0.67;63.68
61359;BME280;47228;46.762;23.598;2022-12-28T01:41:34;98368.63;;;0.63;63.74
61359;BME280;47228;46.762;23.598;2022-12-28T01:46:40;98366.84;;;0.59;63.79
61359;BME280;47228;46.762;23.598;2022-12-28T01:51:51;98370.02;;;0.54;63.71
61359;BME280;47228;46.762;23.598;2022-12-28T01:54:22;98374.13;;;0.48;63.75
61359;BME280;47228;46.762;23.598;2022-12-28T01:56:52;98371.84;;;0.41;63.68
61359;BME280;47228;46.762;23.598;2022-12-28T01:59:24;98373.59;;;0.34;63.85
61359;BME280;47228;46.762;23.598;2022-12-28T02:01:53;98375.30;;;0.24;63.83
61359;BME280;47228;46.762;23.598;2022-12-28T02:04:23;98375.81;;;0.20;63.75
61359;BME280;47228;46.762;23.598;2022-12-28T02:06:53;98372.39;;;0.17;63.86
61359;BME280;47228;46.762;23.598;2022-12-28T02:09:30;98372.27;;;0.13;64.07
61359;BME280;47228;46.762;23.598;2022-12-28T02:12:00;98370.31;;;0.06;64.11
61359;BME280;47228;46.762;23.598;2022-12-28T02:14:29;98368.94;;;-0.01;64.04
61359;BME280;47228;46.762;23.598;2022-12-28T02:16:57;98368.60;;;-0.06;64.08
61359;BME280;47228;46.762;23.598;2022-12-28T02:19:46;98366.35;;;-0.08;64.02
61359;BME280;47228;46.762;23.598;2022-12-28T02:27:58;98364.42;;;-0.18;64.67
61359;BME280;47228;46.762;23.598;2022-12-28T02:30:34;98365.59;;;-0.20;64.87
61359;BME280;47228;46.762;23.598;2022-12-28T02:36:00;98371.31;;;-0.22;65.06
61359;BME280;47228;46.762;23.598;2022-12-28T02:39:01;98372.02;;;-0.25;64.90
61359;BME280;47228;46.762;23.598;2022-12-28T02:41:33;98371.88;;;-0.28;64.90
61359;BME280;47228;46.762;23.598;2022-12-28T02:44:01;98373.52;;;-0.31;65.20
61359;BME280;47228;46.762;23.598;2022-12-28T02:46:31;98373.64;;;-0.35;65.45
61359;BME280;47228;46.762;23.598;2022-12-28T02:49:24;98375.70;;;-0.40;65.66
61359;BME280;47228;46.762;23.598;2022-12-28T03:00:50;98373.11;;;-0.63;67.02
61359;BME280;47228;46.762;23.598;2022-12-28T03:03:31;98375.64;;;-0.67;67.37
61359;BME280;47228;46.762;23.598;2022-12-28T03:06:19;98374.77;;;-0.70;67.87
61359;BME280;47228;46.762;23.598;2022-12-28T03:09:14;98374.63;;;-0.70;69.01
61359;BME280;47228;46.762;23.598;2022-12-28T03:11:52;98371.04;;;-0.71;68.94
61359;BME280;47228;46.762;23.598;2022-12-28T03:14:27;98373.28;;;-0.74;69.14
61359;BME280;47228;46.762;23.598;2022-12-28T03:16:57;98373.50;;;-0.77;69.34
61359;BME280;47228;46.762;23.598;2022-12-28T03:19:50;98369.94;;;-0.81;69.13
61359;BME280;47228;46.762;23.598;2022-12-28T03:22:40;98373.23;;;-0.83;69.16
61359;BME280;47228;46.762;23.598;2022-12-28T03:25:32;98369.13;;;-0.84;68.91
61359;BME280;47228;46.762;23.598;2022-12-28T03:28:23;98368.91;;;-0.83;68.67
61359;BME280;47228;46.762;23.598;2022-12-28T03:31:13;98371.02;;;-0.84;68.66
61359;BME280;47228;46.762;23.598;2022-12-28T03:33:47;98372.69;;;-0.83;68.80
61359;BME280;47228;46.762;23.598;2022-12-28T03:39:36;98372.89;;;-0.85;69.01
61359;BME280;47228;46.762;23.598;2022-12-28T03:48:15;98358.67;;;-1.02;69.94
61359;BME280;47228;46.762;23.598;2022-12-28T03:50:46;98359.77;;;-1.05;70.44
61359;BME280;47228;46.762;23.598;2022-12-28T03:53:16;98360.44;;;-1.07;70.69
61359;BME280;47228;46.762;23.598;2022-12-28T03:55:46;98360.88;;;-1.09;70.81
61359;BME280;47228;46.762;23.598;2022-12-28T03:58:14;98366.19;;;-1.10;70.73
61359;BME280;47228;46.762;23.598;2022-12-28T04:00:42;98370.96;;;-1.11;71.03
61359;BME280;47228;46.762;23.598;2022-12-28T04:03:10;98380.47;;;-1.11;71.29
61359;BME280;47228;46.762;23.598;2022-12-28T04:05:38;98380.80;;;-1.10;71.20
61359;BME280;47228;46.762;23.598;2022-12-28T04:08:06;98382.08;;;-1.11;71.22
61359;BME280;47228;46.762;23.598;2022-12-28T04:10:33;98384.37;;;-1.12;71.18
61359;BME280;47228;46.762;23.598;2022-12-28T04:13:01;98384.80;;;-1.13;71.30
61359;BME280;47228;46.762;23.598;2022-12-28T04:15:29;98387.43;;;-1.13;71.46
61359;BME280;47228;46.762;23.598;2022-12-28T04:17:59;98390.58;;;-1.13;71.49
61359;BME280;47228;46.762;23.598;2022-12-28T04:20:28;98388.92;;;-1.15;71.53
61359;BME280;47228;46.762;23.598;2022-12-28T04:22:55;98388.95;;;-1.15;71.70
61359;BME280;47228;46.762;23.598;2022-12-28T04:25:23;98393.12;;;-1.15;71.68
61359;BME280;47228;46.762;23.598;2022-12-28T04:27:51;98392.70;;;-1.17;71.57
61359;BME280;47228;46.762;23.598;2022-12-28T04:30:19;98389.67;;;-1.19;71.71
61359;BME280;47228;46.762;23.598;2022-12-28T04:32:47;98394.91;;;-1.21;71.64
61359;BME280;47228;46.762;23.598;2022-12-28T04:35:15;98396.30;;;-1.27;71.46
61359;BME280;47228;46.762;23.598;2022-12-28T04:37:43;98394.82;;;-1.34;71.65
61359;BME280;47228;46.762;23.598;2022-12-28T04:40:11;98396.17;;;-1.41;71.85
61359;BME280;47228;46.762;23.598;2022-12-28T04:42:39;98391.40;;;-1.45;72.05
61359;BME280;47228;46.762;23.598;2022-12-28T04:45:08;98394.31;;;-1.47;72.00
61359;BME280;47228;46.762;23.598;2022-12-28T04:47:36;98394.89;;;-1.50;72.37
61359;BME280;47228;46.762;23.598;2022-12-28T04:50:04;98398.41;;;-1.51;72.60
61359;BME280;47228;46.762;23.598;2022-12-28T04:52:32;98403.79;;;-1.51;72.85
61359;BME280;47228;46.762;23.598;2022-12-28T04:55:00;98407.56;;;-1.50;72.96
61359;BME280;47228;46.762;23.598;2022-12-28T04:57:28;98410.77;;;-1.49;72.92
61359;BME280;47228;46.762;23.598;2022-12-28T04:59:56;98412.86;;;-1.49;72.92
61359;BME280;47228;46.762;23.598;2022-12-28T05:02:24;98412.45;;;-1.51;72.78
61359;BME280;47228;46.762;23.598;2022-12-28T05:04:53;98411.13;;;-1.52;72.99
61359;BME280;47228;46.762;23.598;2022-12-28T05:07:21;98411.02;;;-1.53;72.89
61359;BME280;47228;46.762;23.598;2022-12-28T05:09:49;98410.55;;;-1.53;73.02
61359;BME280;47228;46.762;23.598;2022-12-28T05:12:16;98408.63;;;-1.53;73.05
61359;BME280;47228;46.762;23.598;2022-12-28T05:14:45;98407.42;;;-1.53;73.30
61359;BME280;47228;46.762;23.598;2022-12-28T05:17:13;98409.54;;;-1.54;73.14
61359;BME280;47228;46.762;23.598;2022-12-28T05:19:41;98410.49;;;-1.58;72.92
61359;BME280;47228;46.762;23.598;2022-12-28T05:22:09;98411.91;;;-1.61;73.07
61359;BME280;47228;46.762;23.598;2022-12-28T05:24:38;98417.98;;;-1.64;73.12
61359;BME280;47228;46.762;23.598;2022-12-28T05:27:06;98417.95;;;-1.66;73.25
61359;BME280;47228;46.762;23.598;2022-12-28T05:29:34;98418.41;;;-1.68;73.21
61359;BME280;47228;46.762;23.598;2022-12-28T05:32:02;98416.11;;;-1.67;73.45
61359;BME280;47228;46.762;23.598;2022-12-28T05:34:30;98416.95;;;-1.64;73.56
61359;BME280;47228;46.762;23.598;2022-12-28T05:36:58;98414.61;;;-1.60;73.70
61359;BME280;47228;46.762;23.598;2022-12-28T05:39:26;98415.87;;;-1.55;73.79
61359;BME280;47228;46.762;23.598;2022-12-28T05:41:54;98415.78;;;-1.51;73.73
61359;BME280;47228;46.762;23.598;2022-12-28T05:44:27;98414.59;;;-1.49;73.81
61359;BME280;47228;46.762;23.598;2022-12-28T05:46:55;98415.78;;;-1.48;73.38
61359;BME280;47228;46.762;23.598;2022-12-28T05:49:23;98416.34;;;-1.52;73.14
61359;BME280;47228;46.762;23.598;2022-12-28T05:51:51;98416.83;;;-1.57;73.20
61359;BME280;47228;46.762;23.598;2022-12-28T05:54:19;98420.80;;;-1.64;73.20
61359;BME280;47228;46.762;23.598;2022-12-28T05:56:49;98422.08;;;-1.71;73.36
61359;BME280;47228;46.762;23.598;2022-12-28T05:59:18;98425.77;;;-1.77;73.56
61359;BME280;47228;46.762;23.598;2022-12-28T06:01:46;98431.31;;;-1.82;73.80
61359;BME280;47228;46.762;23.598;2022-12-28T06:04:17;98429.70;;;-1.84;74.15
61359;BME280;47228;46.762;23.598;2022-12-28T06:06:46;98434.31;;;-1.86;74.18
61359;BME280;47228;46.762;23.598;2022-12-28T06:09:15;98434.80;;;-1.88;74.35
61359;BME280;47228;46.762;23.598;2022-12-28T06:11:43;98431.73;;;-1.92;74.33
61359;BME280;47228;46.762;23.598;2022-12-28T06:14:12;98433.11;;;-1.95;74.54
61359;BME280;47228;46.762;23.598;2022-12-28T06:16:40;98430.38;;;-1.96;74.77
61359;BME280;47228;46.762;23.598;2022-12-28T06:19:10;98428.40;;;-1.94;75.03
61359;BME280;47228;46.762;23.598;2022-12-28T06:21:41;98427.50;;;-1.91;75.29
61359;BME280;47228;46.762;23.598;2022-12-28T06:24:10;98427.79;;;-1.87;75.25
61359;BME280;47228;46.762;23.598;2022-12-28T06:26:40;98426.83;;;-1.85;75.39
61359;BME280;47228;46.762;23.598;2022-12-28T06:29:09;98422.58;;;-1.84;75.35
61359;BME280;47228;46.762;23.598;2022-12-28T06:31:40;98420.96;;;-1.84;75.28
61359;BME280;47228;46.762;23.598;2022-12-28T06:34:10;98421.34;;;-1.84;75.36
61359;BME280;47228;46.762;23.598;2022-12-28T06:36:40;98422.99;;;-1.83;75.54
61359;BME280;47228;46.762;23.598;2022-12-28T06:39:11;98423.86;;;-1.80;75.68
61359;BME280;47228;46.762;23.598;2022-12-28T06:41:40;98425.98;;;-1.75;75.83
61359;BME280;47228;46.762;23.598;2022-12-28T06:44:10;98422.05;;;-1.70;75.89
61359;BME280;47228;46.762;23.598;2022-12-28T06:46:38;98427.23;;;-1.64;75.80
61359;BME280;47228;46.762;23.598;2022-12-28T06:49:06;98429.23;;;-1.60;75.74
61359;BME280;47228;46.762;23.598;2022-12-28T06:51:36;98428.16;;;-1.58;76.00
61359;BME280;47228;46.762;23.598;2022-12-28T06:54:09;98426.55;;;-1.57;75.71
61359;BME280;47228;46.762;23.598;2022-12-28T06:56:37;98424.88;;;-1.57;75.71
61359;BME280;47228;46.762;23.598;2022-12-28T06:59:05;98418.11;;;-1.57;75.71
61359;BME280;47228;46.762;23.598;2022-12-28T07:01:39;98416.52;;;-1.57;75.94
61359;BME280;47228;46.762;23.598;2022-12-28T07:04:08;98418.39;;;-1.57;76.08
61359;BME280;47228;46.762;23.598;2022-12-28T07:06:39;98419.11;;;-1.54;75.92
61359;BME280;47228;46.762;23.598;2022-12-28T07:09:10;98408.85;;;-1.51;75.87
61359;BME280;47228;46.762;23.598;2022-12-28T07:11:41;98406.14;;;-1.50;75.87
61359;BME280;47228;46.762;23.598;2022-12-28T07:14:10;98415.25;;;-1.46;75.93
61359;BME280;47228;46.762;23.598;2022-12-28T07:16:39;98421.23;;;-1.41;76.21
61359;BME280;47228;46.762;23.598;2022-12-28T07:19:06;98419.77;;;-1.38;76.20
61359;BME280;47228;46.762;23.598;2022-12-28T07:21:36;98421.41;;;-1.36;76.35
61359;BME280;47228;46.762;23.598;2022-12-28T07:24:05;98426.20;;;-1.35;76.12
61359;BME280;47228;46.762;23.598;2022-12-28T07:26:35;98426.54;;;-1.35;76.12
61359;BME280;47228;46.762;23.598;2022-12-28T07:29:05;98422.52;;;-1.34;76.25
61359;BME280;47228;46.762;23.598;2022-12-28T07:31:36;98423.60;;;-1.32;76.55
61359;BME280;47228;46.762;23.598;2022-12-28T07:34:15;98428.48;;;-1.27;76.77
61359;BME280;47228;46.762;23.598;2022-12-28T07:36:45;98429.32;;;-1.21;76.81
61359;BME280;47228;46.762;23.598;2022-12-28T07:39:12;98432.27;;;-1.13;76.64
61359;BME280;47228;46.762;23.598;2022-12-28T07:41:40;98430.08;;;-1.06;76.39
61359;BME280;47228;46.762;23.598;2022-12-28T07:44:08;98430.60;;;-0.99;76.54
61359;BME280;47228;46.762;23.598;2022-12-28T07:46:36;98434.41;;;-0.87;76.69
61359;BME280;47228;46.762;23.598;2022-12-28T07:49:05;98433.95;;;-0.78;76.70
61359;BME280;47228;46.762;23.598;2022-12-28T07:51:35;98434.58;;;-0.69;76.36
61359;BME280;47228;46.762;23.598;2022-12-28T07:54:04;98435.27;;;-0.62;76.17
61359;BME280;47228;46.762;23.598;2022-12-28T07:56:32;98433.63;;;-0.55;76.01
61359;BME280;47228;46.762;23.598;2022-12-28T07:59:01;98430.09;;;-0.49;75.99
61359;BME280;47228;46.762;23.598;2022-12-28T08:01:32;98428.58;;;-0.43;75.87
61359;BME280;47228;46.762;23.598;2022-12-28T08:04:03;98426.90;;;-0.38;75.30
61359;BME280;47228;46.762;23.598;2022-12-28T08:06:35;98425.41;;;-0.34;74.63
61359;BME280;47228;46.762;23.598;2022-12-28T08:09:04;98425.84;;;-0.28;74.70
61359;BME280;47228;46.762;23.598;2022-12-28T08:11:35;98427.34;;;-0.22;74.45
61359;BME280;47228;46.762;23.598;2022-12-28T08:14:05;98424.79;;;-0.18;74.20
61359;BME280;47228;46.762;23.598;2022-12-28T08:16:36;98426.92;;;-0.16;73.65
61359;BME280;47228;46.762;23.598;2022-12-28T08:19:05;98428.36;;;-0.14;73.52
61359;BME280;47228;46.762;23.598;2022-12-28T08:24:04;98432.63;;;-0.13;73.14
61359;BME280;47228;46.762;23.598;2022-12-28T08:26:38;98438.77;;;-0.13;73.26
61359;BME280;47228;46.762;23.598;2022-12-28T08:29:10;98440.28;;;-0.13;72.98
61359;BME280;47228;46.762;23.598;2022-12-28T08:31:44;98443.10;;;-0.13;72.66
61359;BME280;47228;46.762;23.598;2022-12-28T08:34:15;98447.31;;;-0.16;72.78
61359;BME280;47228;46.762;23.598;2022-12-28T08:36:44;98453.63;;;-0.19;72.73
61359;BME280;47228;46.762;23.598;2022-12-28T08:39:12;98454.95;;;-0.23;72.21
61359;BME280;47228;46.762;23.598;2022-12-28T08:41:41;98452.02;;;-0.27;72.10
61359;BME280;47228;46.762;23.598;2022-12-28T08:44:09;98451.61;;;-0.30;72.07
61359;BME280;47228;46.762;23.598;2022-12-28T08:46:37;98453.19;;;-0.33;72.34
61359;BME280;47228;46.762;23.598;2022-12-28T08:49:07;98452.80;;;-0.32;72.54
61359;BME280;47228;46.762;23.598;2022-12-28T08:51:37;98443.02;;;-0.32;72.53
61359;BME280;47228;46.762;23.598;2022-12-28T08:54:10;98441.16;;;-0.31;72.31
61359;BME280;47228;46.762;23.598;2022-12-28T08:56:41;98436.20;;;-0.29;72.37
61359;BME280;47228;46.762;23.598;2022-12-28T08:59:15;98429.14;;;-0.28;72.58
61359;BME280;47228;46.762;23.598;2022-12-28T09:01:45;98422.98;;;-0.24;72.94
61359;BME280;47228;46.762;23.598;2022-12-28T09:04:16;98425.94;;;-0.21;72.65
61359;BME280;47228;46.762;23.598;2022-12-28T09:06:45;98430.14;;;-0.20;71.80
61359;BME280;47228;46.762;23.598;2022-12-28T09:09:15;98432.06;;;-0.17;71.48
61359;BME280;47228;46.762;23.598;2022-12-28T09:11:44;98437.52;;;-0.16;71.08
61359;BME280;47228;46.762;23.598;2022-12-28T09:14:13;98442.08;;;-0.14;70.72
61359;BME280;47228;46.762;23.598;2022-12-28T09:16:52;98436.01;;;-0.11;70.88
61359;BME280;47228;46.762;23.598;2022-12-28T09:19:20;98428.89;;;-0.09;70.75
61359;BME280;47228;46.762;23.598;2022-12-28T09:21:50;98428.83;;;-0.06;70.84
61359;BME280;47228;46.762;23.598;2022-12-28T09:24:21;98418.34;;;-0.03;70.84
61359;BME280;47228;46.762;23.598;2022-12-28T09:26:49;98411.33;;;0.01;70.53
61359;BME280;47228;46.762;23.598;2022-12-28T09:29:20;98407.30;;;0.03;70.50
61359;BME280;47228;46.762;23.598;2022-12-28T09:31:48;98410.39;;;0.06;70.47
61359;BME280;47228;46.762;23.598;2022-12-28T09:34:16;98413.16;;;0.09;70.53
61359;BME280;47228;46.762;23.598;2022-12-28T09:37:05;98414.17;;;0.12;70.73
61359;BME280;47228;46.762;23.598;2022-12-28T09:39:33;98412.92;;;0.15;70.59
61359;BME280;47228;46.762;23.598;2022-12-28T09:42:15;98411.70;;;0.18;70.42
61359;BME280;47228;46.762;23.598;2022-12-28T09:55:19;98399.13;;;0.32;69.65
61359;BME280;47228;46.762;23.598;2022-12-28T09:57:50;98391.94;;;0.38;69.60
61359;BME280;47228;46.762;23.598;2022-12-28T10:00:31;98383.92;;;0.45;69.72
61359;BME280;47228;46.762;23.598;2022-12-28T10:03:05;98375.99;;;0.51;69.93
61359;BME280;47228;46.762;23.598;2022-12-28T10:05:38;98377.17;;;0.56;69.67
61359;BME280;47228;46.762;23.598;2022-12-28T10:08:09;98381.23;;;0.60;69.51
61359;BME280;47228;46.762;23.598;2022-12-28T10:10:40;98378.11;;;0.65;69.52
61359;BME280;47228;46.762;23.598;2022-12-28T10:13:27;98377.30;;;0.69;69.34
61359;BME280;47228;46.762;23.598;2022-12-28T10:16:19;98374.21;;;0.73;69.46
61359;BME280;47228;46.762;23.598;2022-12-28T10:18:48;98372.18;;;0.77;69.60
61359;BME280;47228;46.762;23.598;2022-12-28T10:21:18;98371.48;;;0.80;69.73
61359;BME280;47228;46.762;23.598;2022-12-28T10:23:53;98367.04;;;0.83;69.69
61359;BME280;47228;46.762;23.598;2022-12-28T10:26:44;98368.42;;;0.87;69.76
61359;BME280;47228;46.762;23.598;2022-12-28T10:29:22;98365.70;;;0.91;69.77
61359;BME280;47228;46.762;23.598;2022-12-28T10:32:05;98363.82;;;0.96;69.73
61359;BME280;47228;46.762;23.598;2022-12-28T10:34:34;98358.73;;;1.00;69.63
61359;BME280;47228;46.762;23.598;2022-12-28T10:37:23;98356.84;;;1.05;69.70
61359;BME280;47228;46.762;23.598;2022-12-28T10:39:56;98357.75;;;1.09;69.69
61359;BME280;47228;46.762;23.598;2022-12-28T10:42:38;98353.92;;;1.13;69.55
61359;BME280;47228;46.762;23.598;2022-12-28T10:45:18;98347.42;;;1.19;69.63
61359;BME280;47228;46.762;23.598;2022-12-28T10:47:51;98347.30;;;1.25;69.79
61359;BME280;47228;46.762;23.598;2022-12-28T10:50:57;98351.56;;;1.30;69.77
61359;BME280;47228;46.762;23.598;2022-12-28T10:53:30;98354.02;;;1.40;69.52
61359;BME280;47228;46.762;23.598;2022-12-28T10:58:38;98349.61;;;1.56;69.81
61359;BME280;47228;46.762;23.598;2022-12-28T11:04:03;98344.13;;;1.72;69.68
61359;BME280;47228;46.762;23.598;2022-12-28T11:06:35;98341.67;;;1.80;69.79
61359;BME280;47228;46.762;23.598;2022-12-28T11:09:31;98342.21;;;1.86;69.92
61359;BME280;47228;46.762;23.598;2022-12-28T11:12:23;98344.02;;;1.91;70.03
61359;BME280;47228;46.762;23.598;2022-12-28T11:14:51;98341.91;;;1.96;69.90
61359;BME280;47228;46.762;23.598;2022-12-28T11:17:23;98344.84;;;1.99;69.74
61359;BME280;47228;46.762;23.598;2022-12-28T11:19:56;98349.02;;;2.01;69.77
61359;BME280;47228;46.762;23.598;2022-12-28T11:22:28;98344.58;;;2.04;69.74
61359;BME280;47228;46.762;23.598;2022-12-28T11:24:58;98335.96;;;2.07;69.70
61359;BME280;47228;46.762;23.598;2022-12-28T11:27:27;98331.87;;;2.10;69.84
61359;BME280;47228;46.762;23.598;2022-12-28T11:29:56;98331.16;;;2.13;69.62
61359;BME280;47228;46.762;23.598;2022-12-28T11:32:27;98332.02;;;2.15;69.39
61359;BME280;47228;46.762;23.598;2022-12-28T11:34:57;98331.09;;;2.18;69.63
61359;BME280;47228;46.762;23.598;2022-12-28T11:37:25;98325.23;;;2.21;69.63
61359;BME280;47228;46.762;23.598;2022-12-28T11:39:53;98324.63;;;2.27;69.66
61359;BME280;47228;46.762;23.598;2022-12-28T11:45:12;98313.96;;;2.39;69.89
61359;BME280;47228;46.762;23.598;2022-12-28T11:47:41;98313.31;;;2.45;69.97
61359;BME280;47228;46.762;23.598;2022-12-28T11:56:08;98310.89;;;2.66;69.73
61359;BME280;47228;46.762;23.598;2022-12-28T12:11:55;98313.04;;;2.87;69.43
61359;BME280;47228;46.762;23.598;2022-12-28T12:14:34;98315.34;;;2.88;69.41
61359;BME280;47228;46.762;23.598;2022-12-28T12:17:43;98312.23;;;2.90;69.32
61359;BME280;47228;46.762;23.598;2022-12-28T12:23:04;98307.38;;;2.94;69.33
61359;BME280;47228;46.762;23.598;2022-12-28T12:25:36;98305.37;;;2.94;69.52
61359;BME280;47228;46.762;23.598;2022-12-28T12:31:01;98309.22;;;2.97;69.40
61359;BME280;47228;46.762;23.598;2022-12-28T12:33:34;98306.58;;;2.99;69.25
61359;BME280;47228;46.762;23.598;2022-12-28T12:42:02;98295.75;;;3.07;69.33
61359;BME280;47228;46.762;23.598;2022-12-28T12:47:44;98288.24;;;3.13;69.65
61359;BME280;47228;46.762;23.598;2022-12-28T12:53:34;98287.20;;;3.19;69.40
61359;BME280;47228;46.762;23.598;2022-12-28T12:56:34;98285.66;;;3.21;69.34
61359;BME280;47228;46.762;23.598;2022-12-28T13:04:26;98285.99;;;3.21;69.40
61359;BME280;47228;46.762;23.598;2022-12-28T13:06:59;98289.27;;;3.20;69.32
61359;BME280;47228;46.762;23.598;2022-12-28T13:09:31;98289.27;;;3.18;69.20
61359;BME280;47228;46.762;23.598;2022-12-28T13:12:01;98290.79;;;3.14;69.07
61359;BME280;47228;46.762;23.598;2022-12-28T13:14:29;98289.20;;;3.10;69.20
61359;BME280;47228;46.762;23.598;2022-12-28T13:16:58;98284.94;;;3.07;69.34
61359;BME280;47228;46.762;23.598;2022-12-28T13:19:28;98285.73;;;3.04;69.61
61359;BME280;47228;46.762;23.598;2022-12-28T13:21:57;98283.66;;;3.01;69.59
61359;BME280;47228;46.762;23.598;2022-12-28T13:24:44;98282.83;;;3.01;69.39
61359;BME280;47228;46.762;23.598;2022-12-28T13:27:17;98282.56;;;3.02;69.89
61359;BME280;47228;46.762;23.598;2022-12-28T13:29:50;98282.48;;;3.03;69.84
61359;BME280;47228;46.762;23.598;2022-12-28T13:32:26;98277.31;;;3.04;69.88
61359;BME280;47228;46.762;23.598;2022-12-28T13:35:18;98273.33;;;3.05;69.93
61359;BME280;47228;46.762;23.598;2022-12-28T13:38:13;98275.98;;;3.05;69.72
61359;BME280;47228;46.762;23.598;2022-12-28T13:40:52;98270.84;;;3.02;69.67
61359;BME280;47228;46.762;23.598;2022-12-28T13:46:15;98259.83;;;2.93;69.92
61359;BME280;47228;46.762;23.598;2022-12-28T13:48:47;98260.89;;;2.89;70.12
61359;BME280;47228;46.762;23.598;2022-12-28T13:51:19;98260.52;;;2.85;70.23
61359;BME280;47228;46.762;23.598;2022-12-28T13:53:51;98261.45;;;2.80;70.01
61359;BME280;47228;46.762;23.598;2022-12-28T13:56:22;98266.15;;;2.77;70.10
61359;BME280;47228;46.762;23.598;2022-12-28T13:59:00;98264.20;;;2.71;70.37
61359;BME280;47228;46.762;23.598;2022-12-28T14:01:34;98264.46;;;2.65;70.41
61359;BME280;47228;46.762;23.598;2022-12-28T14:04:04;98262.45;;;2.60;70.75
61359;BME280;47228;46.762;23.598;2022-12-28T14:06:53;98262.44;;;2.54;70.93
61359;BME280;47228;46.762;23.598;2022-12-28T14:09:21;98261.14;;;2.49;70.97
61359;BME280;47228;46.762;23.598;2022-12-28T14:11:49;98257.00;;;2.43;70.89
61359;BME280;47228;46.762;23.598;2022-12-28T14:14:20;98256.11;;;2.39;71.05
61359;BME280;47228;46.762;23.598;2022-12-28T14:16:49;98254.61;;;2.36;71.05
61359;BME280;47228;46.762;23.598;2022-12-28T14:19:17;98254.85;;;2.36;71.25
61359;BME280;47228;46.762;23.598;2022-12-28T14:21:45;98256.02;;;2.36;71.35
61359;BME280;47228;46.762;23.598;2022-12-28T14:24:14;98255.02;;;2.36;71.55
61359;BME280;47228;46.762;23.598;2022-12-28T14:29:26;98259.48;;;2.30;71.30
61359;BME280;47228;46.762;23.598;2022-12-28T14:32:14;98259.24;;;2.27;71.37
61359;BME280;47228;46.762;23.598;2022-12-28T14:34:43;98260.20;;;2.22;71.46
61359;BME280;47228;46.762;23.598;2022-12-28T14:37:25;98266.67;;;2.17;71.61
61359;BME280;47228;46.762;23.598;2022-12-28T14:39:59;98271.40;;;2.13;71.62
61359;BME280;47228;46.762;23.598;2022-12-28T14:42:29;98269.24;;;2.07;71.83
61359;BME280;47228;46.762;23.598;2022-12-28T14:44:57;98263.27;;;2.01;71.82
61359;BME280;47228;46.762;23.598;2022-12-28T14:47:46;98263.64;;;1.94;72.11
61359;BME280;47228;46.762;23.598;2022-12-28T14:50:23;98261.91;;;1.90;72.26
61359;BME280;47228;46.762;23.598;2022-12-28T14:53:18;98264.65;;;1.88;72.55
61359;BME280;47228;46.762;23.598;2022-12-28T14:56:20;98264.35;;;1.90;72.77
61359;BME280;47228;46.762;23.598;2022-12-28T14:58:51;98263.31;;;1.92;72.84
61359;BME280;47228;46.762;23.598;2022-12-28T15:01:21;98266.66;;;1.93;73.02
61359;BME280;47228;46.762;23.598;2022-12-28T15:03:55;98267.13;;;1.94;72.79